Caledonia, WI

10:31 PM CDT on March 28, 2017 (GMT -0500)
60th Street | | Change Station
Active Advisory: Dense Fog Advisory

Elev 711 ft 42.83 °N, 87.99 °W | Updated 17 minutes ago

Partly Cloudy
Partly Cloudy
34.5 °F
Feels Like 34 °F
N
2.5
Wind Variable Wind from NNE
Gusts 5.0 mph

Today
High -- | Low -- °F
--% Chance of Precip.
Yesterday
High -- | Low -- °F
Precip. -- in
Pressure 30.28 in
Visibility 0.5 miles
Clouds
Windchill 34 °F
Dew Point 34 °F
Humidity 100%
Rainfall 0.00 in
Snow Depth Not available.
6:40 AM 7:13 PM
New Moon, 1% visible
METAR KRAC 290253Z AUTO 02008KT 1/2SM FG VV002 02/01 A3026 RMK AO2 SLP252 T00170006 53018
Pressure 30.28 in
Visibility 0.5 miles
Clouds
Windchill 34 °F
Dew Point 34 °F
Humidity 100%
Rainfall 0.00 in
Snow Depth Not available.
6:40 AM 7:13 PM
New Moon, 1% visible
METAR KRAC 290253Z AUTO 02008KT 1/2SM FG VV002 02/01 A3026 RMK AO2 SLP252 T00170006 53018

Get Your Daily Forecast Email!

Thanks for signing up!

Be on the lookout for a verification email in your inbox.

You'll start receiving severe weather alerts in your inbox..

×

10-Day Weather Forecast

Almanac

Astronomy

Mar. 28, 2017 Rise Set
Actual Time
Civil Twilight
Nautical Twilight
Astronomical Twilight
Moon
Length of Visible Light
Length of Day
Tomorrow will be .
, % of the Moon is Illuminated

Today's Extremes

State Highs State Lows

Community

WunderPhotos

Upload Photos

1,962,540 photos uploaded!

WunderBlog® & News

Nearby

Air Quality

  Air Quality AQ Index Pollutant
Not available.

Snow Depth

Station Depth Elevation

Earthquake Activity

City Distance Mag. Time & Date
Minimum magnitude displayed is 2.5.

Earthquake Activity

City Distance Mag. Time & Date
Minimum magnitude displayed is 2.5.

Coastal Water Temperatures

Place Temperature

Stations

Nearby Weather Stations

Station Location Temp. Windchill Dew Point Humidity Wind Precip. Elev Updated Type
                   

Watches & Warnings

Dense Fog Advisory
Issued: 8:59 PM CDT Mar. 28, 2017 – National Weather Service

... Dense fog advisory remains in effect until 9 am CDT
Wednesday...

A dense fog advisory remains in effect until 9 am CDT Wednesday.

* Timing... through mid morning on Wednesday.

* Visibility... 1/4 mile or less, mainly close to Lake Michigan.

* Impacts... visibilities will change rapidly across the area, so
be prepared for deteriorating conditions overnight.

Precautionary/preparedness actions...

A dense fog advisory means visibilities will frequently be
reduced to less than one quarter mile. If driving... slow down...
use your headlights... and leave plenty of distance ahead of you.